Share

Montevideo, MN (56265)

7:17 AM CDT on April 23, 2014 (GMT -0500)
Near Chinhinta Park (KMNMONTE4) Elev 1024 ft | 44.94 °N, 95.72 °W | Change Station
Active Advisory: Wind Advisory

Current weather conditions updated 2 seconds ago

Overcast
Overcast
43.0 °F
Feels Like 43 °F
N
3.0
Wind Variable Wind from ESE
Gusts 6.0 mph
Sunrise 6:24 AM
Sunset 8:18 PM
Moon Last Quarter

Today is forecast to be Much Cooler than yesterday. Showers.

Pressure 29.98 in
Visibility 10.0 miles
Clouds Overcast 6000 ft
Windchill 43 °F
Dew Point 36 °F
Humidity 77%
Rainfall 0.02 in
Snow Depth Not available.
UV 0 out of 16
Pollen 8.50 out of 12
Air Quality Not available.
Flu Activity Sporadic
METAR KMVE 231214Z AUTO 16016KT 10SM -RA OVC060 06/03 A2998 RMK AO2 LTG DSNT SW

More Conditions Fewer Conditions

Pressure 29.98 in
Visibility 10.0 miles
Clouds Overcast 6000 ft
Windchill 43 °F
Dew Point 36 °F
Humidity 77%
Rainfall 0.02 in
Snow Depth Not available.
UV 0 out of 16
Pollen 8.50 out of 12
Air Quality Not available.
Flu Activity Sporadic
METAR KMVE 231214Z AUTO 16016KT 10SM -RA OVC060 06/03 A2998 RMK AO2 LTG DSNT SW

More Conditions Fewer Conditions

10-Day Weather Forecast

Almanac

Astronomy

Apr. 23, 2014 Rise Set
Actual Time 6:24 AM CDT 8:18 PM CDT
Civil Twilight 5:53 AM CDT 8:49 PM CDT
Nautical Twilight 5:14 AM CDT 9:28 PM CDT
Astronomical Twilight 4:32 AM CDT 10:10 PM CDT
Moon 3:13 AM CDT 2:12 PM CDT
Length of Visible Light 14h 56m
Length of Day
13h 53m
Tomorrow will be 2m 52s longer.
Last Quarter, 37% of the Moon is Illuminated
Today
Last Quarter
Apr 29
New
May 6
First Quarter
May 14
Full
May 21
Last Quarter

Today's Extremes

State Highs State Lows

Community

  • April Sunset
    April Sunset
  • Waiting..
    Waiting..
  • Sunset...
    Sunset...
  • Happy outdoor day
    Happy outdoor day
  • mystic afternoon....
    mystic afternoon....

WunderPhotos

Upload Photos

1,704,250 photos uploaded!

Nearby

Snow Depth

Station Depth Elevation
No new snow has been reported.

Coastal Water Temperatures

Place Temperature
No Stations Reporting

Earthquake Activity

City Distance Mag. Time & Date
No recent earthquake activity has been reported nearby.
Minimum magnitude displayed is 2.5.

Nearby Weather Stations

Station Location Temp. Windchill Dew Point Humidity Wind Precip. Elev Updated Type
Near Chinhinta Park, Montevideo, MN 43.0 °F 43 °F 36 °F 77% ESE  at  3.0 mph 0.00 in / hr 1024 ft 7:17 AM CDT Rapid Fire
Near Windom Park, Montevideo, MN 43.9 °F 44 °F 38 °F 81% SSE  at  0.0 mph 0.01 in / hr 1004 ft 7:17 AM CDT Rapid Fire
SW of Prinsburg, Prinsburg, MN 42.0 °F 35 °F 37 °F 82% ESE  at  13.0 mph 0.04 in / hr 1071 ft 7:15 AM CDT Normal

Show More Stations Show Fewer Stations

What do you think?

We're not finished. Please let us know what you like, what you don't like, and what you are still missing.